createdAt,value
2023-05-14T00:02:13.586Z,101170.25
2023-05-14T00:04:41.237Z,101172.92
2023-05-14T00:07:08.253Z,101176.02
2023-05-14T00:09:37.064Z,101175.27
2023-05-14T00:12:05.503Z,101176.48
2023-05-14T00:14:32.513Z,101176.13
2023-05-14T00:17:00.028Z,101177.65
2023-05-14T00:19:27.490Z,101179.26
2023-05-14T00:21:54.539Z,101183.09
2023-05-14T00:24:21.585Z,101180.11
2023-05-14T00:26:48.602Z,101180.14
2023-05-14T00:29:15.675Z,101176.46
2023-05-14T00:31:42.750Z,101176.49
2023-05-14T00:34:10.029Z,101174.02
2023-05-14T00:36:37.052Z,101171.30
2023-05-14T00:39:05.050Z,101171.86
2023-05-14T00:41:32.069Z,101168.06
2023-05-14T00:43:59.107Z,101168.23
2023-05-14T00:46:26.456Z,101165.34
2023-05-14T00:48:53.861Z,101171.04
2023-05-14T00:51:21.561Z,101167.90
2023-05-14T00:53:48.604Z,101170.85
2023-05-14T00:56:15.633Z,101169.09
2023-05-14T00:58:42.613Z,101169.44
2023-05-14T01:01:09.750Z,101168.17
2023-05-14T01:03:36.943Z,101166.90
2023-05-14T01:06:12.499Z,101166.84
2023-05-14T01:08:54.917Z,101168.18
2023-05-14T01:11:28.714Z,101167.65
2023-05-14T01:14:17.176Z,101171.90
2023-05-14T01:16:44.989Z,101172.15
2023-05-14T01:19:21.827Z,101178.91
2023-05-14T01:21:48.824Z,101178.48
2023-05-14T01:24:17.104Z,101183.13
2023-05-14T01:26:44.102Z,101186.93
2023-05-14T01:29:19.551Z,101185.53
2023-05-14T01:31:47.408Z,101182.02
2023-05-14T01:34:14.624Z,101183.86
2023-05-14T01:36:41.661Z,101184.89
2023-05-14T01:39:11.630Z,101183.48
2023-05-14T01:41:39.815Z,101178.83
2023-05-14T01:44:06.835Z,101175.94
2023-05-14T01:46:34.082Z,101176.47
2023-05-14T01:49:01.383Z,101174.78
2023-05-14T01:51:28.610Z,101172.45
2023-05-14T01:53:55.714Z,101172.92
2023-05-14T01:56:23.925Z,101171.85
2023-05-14T01:58:51.392Z,101177.16
2023-05-14T02:01:18.509Z,101178.70
2023-05-14T02:03:45.895Z,101179.38
2023-05-14T02:06:12.925Z,101180.62
2023-05-14T02:08:40.166Z,101178.62
2023-05-14T02:11:07.247Z,101180.38
2023-05-14T02:13:34.326Z,101175.98
2023-05-14T02:16:01.764Z,101181.43
2023-05-14T02:18:28.942Z,101182.35
2023-05-14T02:20:56.372Z,101182.30
2023-05-14T02:23:34.088Z,101177.31
2023-05-14T02:26:06.462Z,101178.97
2023-05-14T02:28:33.505Z,101173.77
2023-05-14T02:31:03.399Z,101175.85
2023-05-14T02:33:30.611Z,101174.04
2023-05-14T02:35:57.727Z,101172.55
2023-05-14T02:38:26.014Z,101172.97
2023-05-14T02:40:53.175Z,101178.30
2023-05-14T02:43:20.226Z,101177.20
2023-05-14T02:45:47.457Z,101178.49
2023-05-14T02:48:14.533Z,101173.21
2023-05-14T02:50:41.772Z,101171.05
2023-05-14T02:53:08.978Z,101172.88
2023-05-14T02:55:36.529Z,101178.04
2023-05-14T02:58:03.673Z,101176.74
2023-05-14T03:00:33.017Z,101177.99
2023-05-14T03:03:00.828Z,101174.86
2023-05-14T03:05:28.289Z,101171.03
2023-05-14T03:07:55.362Z,101168.21
2023-05-14T03:10:23.282Z,101168.58
2023-05-14T03:12:50.657Z,101169.95
2023-05-14T03:15:17.825Z,101167.40
2023-05-14T03:17:44.882Z,101167.10
2023-05-14T03:20:13.377Z,101167.88
2023-05-14T03:22:42.889Z,101167.21
2023-05-14T03:25:10.186Z,101169.36
2023-05-14T03:27:37.197Z,101173.31
2023-05-14T03:30:05.611Z,101173.04
2023-05-14T03:32:32.790Z,101173.58
2023-05-14T03:34:59.848Z,101179.53
2023-05-14T03:37:26.871Z,101184.35
2023-05-14T03:39:55.443Z,101178.42
2023-05-14T03:42:22.442Z,101182.23
2023-05-14T03:44:49.660Z,101183.65
2023-05-14T03:47:16.755Z,101184.34
2023-05-14T03:49:43.966Z,101182.94
2023-05-14T03:52:11.861Z,101181.52
2023-05-14T03:54:38.982Z,101180.12
2023-05-14T03:57:06.099Z,101180.63
2023-05-14T03:59:33.106Z,101175.90
2023-05-14T04:02:00.152Z,101179.02
2023-05-14T04:04:27.285Z,101174.73
2023-05-14T04:06:54.869Z,101175.79
2023-05-14T04:09:21.906Z,101168.36
2023-05-14T04:11:49.120Z,101168.64
2023-05-14T04:14:16.174Z,101167.83
2023-05-14T04:16:44.224Z,101165.90
2023-05-14T04:19:11.378Z,101164.39
2023-05-14T04:21:39.112Z,101169.29
2023-05-14T04:24:06.462Z,101173.11
2023-05-14T04:26:33.569Z,101165.62
2023-05-14T04:29:03.182Z,101168.13
2023-05-14T04:31:31.887Z,101164.45
2023-05-14T04:33:59.066Z,101161.48
2023-05-14T04:36:28.794Z,101160.38
2023-05-14T04:38:56.449Z,101162.30
2023-05-14T04:41:23.493Z,101166.20
2023-05-14T04:43:52.307Z,101172.25
2023-05-14T04:46:20.114Z,101168.23
2023-05-14T04:48:47.244Z,101168.73
2023-05-14T04:51:14.869Z,101170.90
2023-05-14T04:53:41.856Z,101169.92
2023-05-14T04:56:08.959Z,101172.86
2023-05-14T04:58:35.999Z,101166.31
2023-05-14T05:01:05.328Z,101167.09
2023-05-14T05:03:32.592Z,101163.64
2023-05-14T05:05:59.613Z,101161.50
2023-05-14T05:08:26.689Z,101159.59
2023-05-14T05:10:53.896Z,101161.20
2023-05-14T05:13:20.903Z,101161.77
2023-05-14T05:15:47.997Z,101161.06
2023-05-14T05:18:15.098Z,101164.48
2023-05-14T05:20:42.184Z,101162.75
2023-05-14T05:23:09.245Z,101162.92
2023-05-14T05:25:36.342Z,101163.47
2023-05-14T05:28:03.438Z,101163.54
2023-05-14T05:30:30.610Z,101163.48
2023-05-14T05:32:57.946Z,101166.16
2023-05-14T05:35:25.321Z,101165.58
2023-05-14T05:37:52.440Z,101164.30
2023-05-14T05:40:20.056Z,101162.12
2023-05-14T05:42:47.109Z,101162.98
2023-05-14T05:45:14.121Z,101163.23
2023-05-14T05:47:41.811Z,101159.54
2023-05-14T05:50:09.973Z,101159.69
2023-05-14T05:52:37.120Z,101162.50
2023-05-14T05:55:04.701Z,101164.60
2023-05-14T05:57:32.050Z,101161.45
2023-05-14T05:59:59.305Z,101162.35
2023-05-14T06:02:26.586Z,101165.15
2023-05-14T06:04:55.784Z,101164.03
2023-05-14T06:07:23.544Z,101159.71
2023-05-14T06:09:51.157Z,101166.02
2023-05-14T06:12:21.335Z,101166.84
2023-05-14T06:14:48.479Z,101162.83
2023-05-14T06:17:19.064Z,101162.81
2023-05-14T06:19:46.100Z,101160.87
2023-05-14T06:22:13.209Z,101156.36
2023-05-14T06:24:40.229Z,101158.93
2023-05-14T06:27:07.878Z,101154.25
2023-05-14T06:29:34.986Z,101157.30
2023-05-14T06:32:04.004Z,101154.53
2023-05-14T06:34:31.721Z,101155.57
2023-05-14T06:36:59.022Z,101155.33
2023-05-14T06:39:26.255Z,101150.94
2023-05-14T06:41:53.532Z,101147.42
2023-05-14T06:44:21.625Z,101149.66
2023-05-14T06:46:50.521Z,101148.33
2023-05-14T06:49:20.074Z,101147.58
2023-05-14T06:51:49.565Z,101147.88
2023-05-14T06:54:17.348Z,101146.13
2023-05-14T06:56:44.728Z,101148.86
2023-05-14T06:59:11.918Z,101149.25
2023-05-14T07:01:41.215Z,101150.42
2023-05-14T07:04:09.087Z,101147.56
2023-05-14T07:06:36.761Z,101147.28
2023-05-14T07:09:04.076Z,101140.98
2023-05-14T07:11:31.198Z,101143.36
2023-05-14T07:13:58.723Z,101141.73
2023-05-14T07:16:26.362Z,101138.46
2023-05-14T07:18:53.781Z,101136.93
2023-05-14T07:21:20.979Z,101134.82
2023-05-14T07:23:47.960Z,101140.59
2023-05-14T07:26:15.105Z,101133.34
2023-05-14T07:28:42.364Z,101135.64
2023-05-14T07:31:09.671Z,101133.59
2023-05-14T07:33:36.745Z,101132.20
2023-05-14T07:36:03.895Z,101129.25
2023-05-14T07:38:31.374Z,101127.48
2023-05-14T07:40:58.762Z,101127.52
2023-05-14T07:43:26.189Z,101125.92
2023-05-14T07:45:53.219Z,101122.92
2023-05-14T07:48:20.323Z,101116.85
2023-05-14T07:50:49.164Z,101116.29
2023-05-14T07:53:16.944Z,101121.05
2023-05-14T07:55:45.510Z,101121.27
2023-05-14T07:58:12.710Z,101124.15
2023-05-14T08:00:40.480Z,101121.48
2023-05-14T08:03:08.247Z,101126.35
2023-05-14T08:05:35.238Z,101122.11
2023-05-14T08:08:02.850Z,101118.91
2023-05-14T08:10:30.114Z,101116.00
2023-05-14T08:12:57.435Z,101115.83
2023-05-14T08:15:27.719Z,101114.17
2023-05-14T08:18:03.656Z,101106.05
2023-05-14T08:20:33.950Z,101098.24
2023-05-14T08:23:01.750Z,101098.27
2023-05-14T08:25:30.053Z,101094.66
2023-05-14T08:28:03.231Z,101092.30
2023-05-14T08:30:32.676Z,101090.13
2023-05-14T08:33:00.270Z,101085.05
2023-05-14T08:35:27.410Z,101082.62
2023-05-14T08:37:54.953Z,101080.76
2023-05-14T08:40:22.291Z,101080.39
2023-05-14T08:42:52.553Z,101079.51
2023-05-14T08:45:22.790Z,101067.11
2023-05-14T08:47:52.170Z,101063.09
2023-05-14T08:50:23.722Z,101062.39
2023-05-14T08:52:54.042Z,101060.29
2023-05-14T08:55:21.611Z,101066.38
2023-05-14T08:57:51.277Z,101065.98
2023-05-14T09:00:19.454Z,101069.47
2023-05-14T09:02:46.585Z,101070.12
2023-05-14T09:05:13.824Z,101069.33
2023-05-14T09:07:41.731Z,101070.09
2023-05-14T09:10:09.922Z,101064.90
2023-05-14T09:12:36.932Z,101059.45
2023-05-14T09:15:05.155Z,101059.90
2023-05-14T09:17:32.846Z,101056.91
2023-05-14T09:20:00.932Z,101055.17
2023-05-14T09:22:29.830Z,101052.75
2023-05-14T09:25:12.464Z,101051.66
2023-05-14T09:27:40.094Z,101047.71
2023-05-14T09:30:14.350Z,101047.09
2023-05-14T09:32:46.307Z,101043.15
2023-05-14T09:35:24.046Z,101041.73
2023-05-14T09:37:53.751Z,101042.59
2023-05-14T09:40:22.859Z,101040.58
2023-05-14T09:42:50.758Z,101037.64
2023-05-14T09:45:17.992Z,101038.92
2023-05-14T09:47:46.115Z,101031.76
2023-05-14T09:50:13.365Z,101033.65
2023-05-14T09:52:40.541Z,101030.02
2023-05-14T09:55:08.454Z,101028.13
2023-05-14T09:57:35.946Z,101024.04
2023-05-14T10:00:03.233Z,101024.05
2023-05-14T10:02:41.625Z,101027.23
2023-05-14T10:05:09.717Z,101025.67
2023-05-14T10:07:43.205Z,101023.52
2023-05-14T10:10:15.311Z,101019.69
2023-05-14T10:12:42.491Z,101017.41
2023-05-14T10:15:27.412Z,101018.16
2023-05-14T10:18:01.021Z,101021.40
2023-05-14T10:20:28.306Z,101014.77
2023-05-14T10:22:55.461Z,101009.73
2023-05-14T10:25:22.693Z,101009.10
2023-05-14T10:27:53.999Z,101007.67
2023-05-14T10:30:34.787Z,101007.77
2023-05-14T10:33:08.913Z,101004.45
2023-05-14T10:35:56.244Z,101000.17
2023-05-14T10:38:27.564Z,100997.39
2023-05-14T10:41:04.619Z,100996.67
2023-05-14T10:43:38.722Z,100995.84
2023-05-14T10:46:07.461Z,100992.88
2023-05-14T10:48:34.888Z,100993.19
2023-05-14T10:51:02.879Z,100993.27
2023-05-14T10:53:39.233Z,100995.34
2023-05-14T10:56:16.925Z,100993.41
2023-05-14T10:58:45.074Z,100986.63
2023-05-14T11:01:13.345Z,100985.85
2023-05-14T11:03:45.383Z,100986.91
2023-05-14T11:06:14.148Z,100985.55
2023-05-14T11:08:41.777Z,100984.64
2023-05-14T11:11:09.290Z,100983.20
2023-05-14T11:13:36.465Z,100987.61
2023-05-14T11:16:21.139Z,100986.10
2023-05-14T11:18:55.054Z,100985.08
2023-05-14T11:21:36.789Z,100981.92
2023-05-14T11:24:05.682Z,100984.15
2023-05-14T11:26:34.681Z,100982.88
2023-05-14T11:29:03.104Z,100984.41
2023-05-14T11:31:32.288Z,100981.31
2023-05-14T11:34:01.179Z,100976.05
2023-05-14T11:36:28.260Z,100976.14
2023-05-14T11:38:55.280Z,100972.46
2023-05-14T11:41:23.459Z,100979.06
2023-05-14T11:43:51.243Z,100974.80
2023-05-14T11:46:18.990Z,100975.08
2023-05-14T11:48:46.254Z,100971.67
2023-05-14T11:51:13.297Z,100967.50
2023-05-14T11:53:40.397Z,100969.94
2023-05-14T11:56:09.681Z,100966.19
2023-05-14T11:58:37.468Z,100966.90
2023-05-14T12:01:05.039Z,100967.98
2023-05-14T12:03:32.449Z,100970.56
2023-05-14T12:06:00.577Z,100968.55
2023-05-14T12:08:29.306Z,100968.15
2023-05-14T12:10:56.625Z,100965.85
2023-05-14T12:13:27.582Z,100962.80
2023-05-14T12:15:56.643Z,100961.87
2023-05-14T12:18:32.412Z,100957.73
2023-05-14T12:21:03.413Z,100951.20
2023-05-14T12:23:31.127Z,100952.55
2023-05-14T12:26:08.940Z,100947.60
2023-05-14T12:28:38.285Z,100946.09
2023-05-14T12:31:05.967Z,100941.67
2023-05-14T12:33:33.379Z,100939.39
2023-05-14T12:36:19.902Z,100938.34
2023-05-14T12:38:49.585Z,100932.25
2023-05-14T12:41:18.454Z,100931.67
2023-05-14T12:43:46.348Z,100927.77
2023-05-14T12:46:13.396Z,100927.73
2023-05-14T12:48:41.982Z,100927.40
2023-05-14T12:51:09.054Z,100924.16
2023-05-14T12:53:36.254Z,100919.45
2023-05-14T12:56:03.312Z,100917.11
2023-05-14T12:58:30.291Z,100916.21
2023-05-14T13:00:57.304Z,100914.41
2023-05-14T13:03:24.426Z,100914.92
2023-05-14T13:05:52.790Z,100908.95
2023-05-14T13:08:21.878Z,100908.52
2023-05-14T13:10:49.014Z,100906.40
2023-05-14T13:13:16.240Z,100906.89
2023-05-14T13:15:43.414Z,100903.65
2023-05-14T13:18:10.611Z,100899.17
2023-05-14T13:20:37.693Z,100902.82
2023-05-14T13:23:04.741Z,100902.61
2023-05-14T13:25:33.581Z,100903.80
2023-05-14T13:28:01.295Z,100910.70
2023-05-14T13:30:28.409Z,100910.25
2023-05-14T13:32:57.552Z,100913.63
2023-05-14T13:35:24.971Z,100915.18
2023-05-14T13:37:52.270Z,100916.96
2023-05-14T13:40:19.558Z,100914.91
2023-05-14T13:42:47.469Z,100915.28
2023-05-14T13:45:14.649Z,100912.16
2023-05-14T13:47:41.797Z,100914.84
2023-05-14T13:50:09.299Z,100918.02
2023-05-14T13:52:36.759Z,100920.19
2023-05-14T13:55:04.372Z,100917.60
2023-05-14T13:57:31.412Z,100922.97
2023-05-14T13:59:58.446Z,100929.72
2023-05-14T14:02:25.714Z,100929.70
2023-05-14T14:04:52.824Z,100932.11
2023-05-14T14:07:21.309Z,100937.91
2023-05-14T14:09:48.470Z,100936.41
2023-05-14T14:12:15.545Z,100934.08
2023-05-14T14:14:42.607Z,100936.88
2023-05-14T14:17:12.383Z,100938.61
2023-05-14T14:19:41.488Z,100940.84
2023-05-14T14:22:08.744Z,100947.52
2023-05-14T14:24:35.923Z,100945.38
2023-05-14T14:27:03.235Z,100946.63
2023-05-14T14:29:31.471Z,100946.88
2023-05-14T14:31:58.853Z,100943.55
2023-05-14T14:34:26.039Z,100937.05
2023-05-14T14:36:53.081Z,100935.30
2023-05-14T14:39:20.090Z,100929.30
2023-05-14T14:41:47.900Z,100926.26
2023-05-14T14:44:15.097Z,100924.15
2023-05-14T14:46:43.252Z,100918.89
2023-05-14T14:49:10.442Z,100918.60
2023-05-14T14:51:37.588Z,100917.96
2023-05-14T14:54:07.500Z,100915.20
2023-05-14T14:56:34.709Z,100916.29
2023-05-14T14:59:02.568Z,100913.56
2023-05-14T15:01:30.517Z,100917.63
2023-05-14T15:03:57.821Z,100914.12
2023-05-14T15:06:26.327Z,100918.95
2023-05-14T15:08:54.589Z,100916.19
2023-05-14T15:11:22.535Z,100921.55
2023-05-14T15:13:49.767Z,100919.95
2023-05-14T15:16:16.930Z,100919.24
2023-05-14T15:18:44.055Z,100913.05
2023-05-14T15:21:11.182Z,100906.96
2023-05-14T15:23:38.302Z,100904.48
2023-05-14T15:26:05.928Z,100902.17
2023-05-14T15:28:33.421Z,100899.09
2023-05-14T15:31:03.388Z,100898.97
2023-05-14T15:33:33.058Z,100896.48
2023-05-14T15:36:02.219Z,100893.43
2023-05-14T15:38:29.483Z,100887.14
2023-05-14T15:40:56.601Z,100888.38
2023-05-14T15:43:23.717Z,100888.46
2023-05-14T15:45:50.942Z,100886.31
2023-05-14T15:48:18.320Z,100888.17
2023-05-14T15:50:48.976Z,100887.94
2023-05-14T15:53:17.598Z,100883.88
2023-05-14T15:55:45.140Z,100878.52
2023-05-14T15:58:13.101Z,100876.98
2023-05-14T16:00:40.520Z,100874.27
2023-05-14T16:03:07.728Z,100873.42
2023-05-14T16:05:34.854Z,100869.77
2023-05-14T16:08:01.833Z,100872.46
2023-05-14T16:10:28.926Z,100865.23
2023-05-14T16:12:56.166Z,100867.20
2023-05-14T16:15:23.221Z,100864.99
2023-05-14T16:17:50.648Z,100862.42
2023-05-14T16:20:18.545Z,100859.29
2023-05-14T16:22:45.805Z,100862.48
2023-05-14T16:25:12.893Z,100869.67
2023-05-14T16:27:39.958Z,100869.23
2023-05-14T16:30:07.787Z,100865.88
2023-05-14T16:32:34.875Z,100863.40
2023-05-14T16:35:03.126Z,100863.67
2023-05-14T16:37:30.338Z,100864.49
2023-05-14T16:39:57.359Z,100865.98
2023-05-14T16:42:25.028Z,100869.17
2023-05-14T16:44:52.082Z,100867.05
2023-05-14T16:47:19.213Z,100864.65
2023-05-14T16:49:46.484Z,100863.55
2023-05-14T16:52:14.040Z,100860.02
2023-05-14T16:54:43.452Z,100860.64
2023-05-14T16:57:11.030Z,100859.95
2023-05-14T16:59:40.764Z,100861.77
2023-05-14T17:02:08.820Z,100859.69
2023-05-14T17:04:38.934Z,100862.81
2023-05-14T17:07:06.961Z,100864.98
2023-05-14T17:09:36.968Z,100868.98
2023-05-14T17:12:04.729Z,100870.26
2023-05-14T17:14:32.155Z,100877.15
2023-05-14T17:16:59.321Z,100877.61
2023-05-14T17:19:26.757Z,100878.28
2023-05-14T17:21:53.858Z,100883.61
2023-05-14T17:24:21.639Z,100883.20
2023-05-14T17:26:49.192Z,100886.48
2023-05-14T17:29:20.869Z,100886.40
2023-05-14T17:31:49.426Z,100884.84
2023-05-14T17:34:17.983Z,100881.81
2023-05-14T17:36:47.493Z,100882.69
2023-05-14T17:39:16.885Z,100885.70
2023-05-14T17:41:44.234Z,100889.66
2023-05-14T17:44:12.689Z,100891.04
2023-05-14T17:46:44.466Z,100889.29
2023-05-14T17:49:12.207Z,100890.50
2023-05-14T17:51:39.392Z,100895.23
2023-05-14T17:54:09.346Z,100895.21
2023-05-14T17:56:38.871Z,100893.48
2023-05-14T17:59:06.507Z,100896.05
2023-05-14T18:01:43.201Z,100898.58
2023-05-14T18:07:19.392Z,100900.09
2023-05-14T18:09:47.301Z,100898.17
2023-05-14T18:12:16.417Z,100903.89
2023-05-14T18:14:48.330Z,100909.52
2023-05-14T18:17:19.145Z,100909.48
2023-05-14T18:19:48.598Z,100911.83
2023-05-14T18:22:22.604Z,100910.80
2023-05-14T18:24:52.708Z,100911.94
2023-05-14T18:27:23.066Z,100909.96
2023-05-14T18:30:01.454Z,100906.41
2023-05-14T18:32:32.157Z,100905.83
2023-05-14T18:35:01.998Z,100907.90
2023-05-14T18:37:30.473Z,100909.75
2023-05-14T18:40:02.084Z,100907.16
2023-05-14T18:42:30.301Z,100908.08
2023-05-14T18:45:00.601Z,100907.00
2023-05-14T18:47:32.641Z,100907.92
2023-05-14T18:50:07.578Z,100907.19
2023-05-14T18:52:35.326Z,100907.15
2023-05-14T18:55:04.036Z,100904.40
2023-05-14T18:57:34.955Z,100902.30
2023-05-14T19:00:02.326Z,100903.31
2023-05-14T19:02:30.308Z,100902.77
2023-05-14T19:04:58.533Z,100900.67
2023-05-14T19:07:26.147Z,100902.34
2023-05-14T19:10:00.472Z,100896.30
2023-05-14T19:12:38.215Z,100895.33
2023-05-14T19:15:06.716Z,100891.64
2023-05-14T19:17:33.857Z,100893.05
2023-05-14T19:20:02.344Z,100893.24
2023-05-14T19:22:29.487Z,100895.60
2023-05-14T19:24:57.197Z,100898.20
2023-05-14T19:27:24.670Z,100900.27
2023-05-14T19:29:55.585Z,100905.42
2023-05-14T19:32:41.001Z,100906.73
2023-05-14T19:35:09.455Z,100905.46
2023-05-14T19:37:37.009Z,100905.74
2023-05-14T19:40:06.680Z,100903.95
2023-05-14T19:42:36.366Z,100908.43
2023-05-14T19:45:05.254Z,100904.05
2023-05-14T19:47:37.614Z,100901.16
2023-05-14T19:50:09.911Z,100899.91
2023-05-14T19:52:37.785Z,100898.98
2023-05-14T19:55:05.898Z,100899.66
2023-05-14T19:57:34.175Z,100901.59
2023-05-14T20:00:02.741Z,100903.38
2023-05-14T20:02:37.948Z,100903.39
2023-05-14T20:05:13.304Z,100901.27
2023-05-14T20:07:40.692Z,100902.09
2023-05-14T20:10:08.490Z,100895.92
2023-05-14T20:12:35.515Z,100896.38
2023-05-14T20:15:03.737Z,100897.15
2023-05-14T20:17:31.282Z,100895.60
2023-05-14T20:20:00.144Z,100896.16
2023-05-14T20:22:27.334Z,100894.29
2023-05-14T20:24:56.022Z,100896.67
2023-05-14T20:27:26.578Z,100897.40
2023-05-14T20:29:55.578Z,100895.23
2023-05-14T20:32:26.127Z,100893.08
2023-05-14T20:34:53.161Z,100891.18
2023-05-14T20:37:20.232Z,100889.75
2023-05-14T20:39:47.717Z,100888.15
2023-05-14T20:42:16.542Z,100882.92
2023-05-14T20:44:43.678Z,100881.66
2023-05-14T20:47:10.786Z,100878.83
2023-05-14T20:49:39.054Z,100879.97
2023-05-14T20:52:06.398Z,100877.77
2023-05-14T20:54:35.255Z,100873.16
2023-05-14T20:57:03.909Z,100871.09
2023-05-14T20:59:31.084Z,100873.52
2023-05-14T21:01:58.390Z,100873.66
2023-05-14T21:04:26.644Z,100874.31
2023-05-14T21:06:54.273Z,100874.33
2023-05-14T21:09:23.449Z,100875.91
2023-05-14T21:11:50.629Z,100875.27
2023-05-14T21:14:17.635Z,100874.35
2023-05-14T21:16:44.655Z,100870.62
2023-05-14T21:19:17.210Z,100871.52
2023-05-14T21:21:44.443Z,100871.89
2023-05-14T21:24:12.644Z,100873.66
2023-05-14T21:26:40.602Z,100872.92
2023-05-14T21:29:09.750Z,100874.48
2023-05-14T21:31:36.769Z,100872.05
2023-05-14T21:34:03.801Z,100873.50
2023-05-14T21:36:32.182Z,100874.73
2023-05-14T21:38:59.436Z,100873.96
2023-05-14T21:41:26.516Z,100872.58
2023-05-14T21:43:53.577Z,100871.61
2023-05-14T21:46:20.612Z,100869.48
2023-05-14T21:48:47.854Z,100869.13
2023-05-14T21:51:15.238Z,100868.83
2023-05-14T21:53:42.485Z,100871.79
2023-05-14T21:56:09.886Z,100870.88
2023-05-14T21:58:37.056Z,100868.66
2023-05-14T22:01:04.813Z,100870.73
2023-05-14T22:03:32.115Z,100869.48
2023-05-14T22:05:59.360Z,100869.85
2023-05-14T22:08:27.410Z,100870.39
2023-05-14T22:10:55.487Z,100870.77
2023-05-14T22:13:22.535Z,100867.69
2023-05-14T22:15:51.349Z,100868.16
2023-05-14T22:18:22.646Z,100868.14
2023-05-14T22:20:49.710Z,100867.12
2023-05-14T22:23:16.757Z,100864.27
2023-05-14T22:25:43.955Z,100858.48
2023-05-14T22:28:10.955Z,100856.88
2023-05-14T22:30:37.945Z,100854.52
2023-05-14T22:33:05.106Z,100854.29
2023-05-14T22:35:32.127Z,100853.80
2023-05-14T22:37:59.163Z,100858.69
2023-05-14T22:40:26.217Z,100857.59
2023-05-14T22:42:53.246Z,100855.67
2023-05-14T22:45:20.289Z,100857.46
2023-05-14T22:47:47.413Z,100857.92
2023-05-14T22:50:14.507Z,100853.70
2023-05-14T22:52:41.721Z,100854.61
2023-05-14T22:55:10.648Z,100859.53
2023-05-14T22:57:37.791Z,100856.10
2023-05-14T23:00:05.407Z,100857.05
2023-05-14T23:02:33.910Z,100853.99
2023-05-14T23:05:01.518Z,100857.13
2023-05-14T23:07:28.540Z,100852.09
2023-05-14T23:09:55.699Z,100851.48
2023-05-14T23:12:22.748Z,100850.30
2023-05-14T23:14:49.781Z,100849.39
2023-05-14T23:17:17.506Z,100850.42
2023-05-14T23:19:44.578Z,100846.39
2023-05-14T23:22:11.552Z,100845.48
2023-05-14T23:24:38.708Z,100848.63
2023-05-14T23:27:05.750Z,100843.45
2023-05-14T23:29:34.836Z,100840.70
2023-05-14T23:32:01.903Z,100841.04
2023-05-14T23:34:28.950Z,100845.35
2023-05-14T23:36:55.924Z,100848.80
2023-05-14T23:39:23.022Z,100847.39
2023-05-14T23:41:50.096Z,100843.27
2023-05-14T23:44:17.089Z,100843.75
2023-05-14T23:46:44.132Z,100842.48
2023-05-14T23:49:13.486Z,100843.68
2023-05-14T23:51:40.469Z,100841.34
2023-05-14T23:54:07.496Z,100841.81
2023-05-14T23:56:46.768Z,100845.75
2023-05-14T23:59:14.221Z,100847.13
